Zagreb — 9AA5910 — position and weather

sailwx.info

Track history (hours):
 
Tides and Currents Weather Stations Pressure Air Temp Water Temp Dewpoint Dewpoint Depression Visibility Wind Speed Wind Dir Waves Ship Positions

Zagreb

Last reported at 2017-Aug-18 02:54 UTC. Time now 2017-Aug-18 10:43 UTC.
Position N 56°59' E 024°06'.

Length 229 m; draft 8.8 m.

Type: Cargo ship. MMSI: 238249000.

Date/timePositionNaut miles runAvg speedWind from/ knotsBaromVisibWave heightAir tempDewpointWater temp
2017-Aug-18 02:54N 56°59' E 024°06'0 0.0
2017-Aug-17 05:24N 56°59' E 024°06'0 0.0
2017-Aug-17 04:45N 56°59' E 024°06'0 0.0
2017-Aug-17 03:03N 56°59' E 024°06'0 0.0
2017-Aug-17 03:00N 56°59' E 024°06'54 3.3
2017-Aug-16 10:37N 57°39' E 022°59'312.0
2017-Aug-16 10:24N 57°41' E 022°56'511.4
2017-Aug-16 10:00N 57°44' E 022°50'712.4
2017-Aug-16 09:28N 57°49' E 022°41'712.8
2017-Aug-16 08:57N 57°49' E 022°29'1312.9
2017-Aug-16 07:55N 57°43' E 022°07'614.6
2017-Aug-16 07:30N 57°41' E 021°56'612.4
2017-Aug-16 07:00N 57°44' E 021°47'612.7
2017-Aug-16 06:30N 57°50' E 021°40'612.6
2017-Aug-16 06:00N 57°52' E 021°29'714.6
2017-Aug-16 05:30N 57°51' E 021°15'611.7
2017-Aug-16 05:00N 57°51' E 021°05'713.3
2017-Aug-16 04:30N 57°48' E 020°54'713.8
2017-Aug-16 04:00N 57°43' E 020°43'713.7
2017-Aug-16 03:30N 57°39' E 020°33'714.1
2017-Aug-16 02:59N 57°34' E 020°23'1413.9
2017-Aug-16 02:00N 57°25' E 020°03'1613.2
2017-Aug-16 00:45N 57°14' E 019°41'1713.7
2017-Aug-15 23:31N 56°59' E 019°27'016.2
2017-Aug-15 23:30N 56°59' E 019°27'1314.2
2017-Aug-15 22:36N 56°47' E 019°16'114.4
2017-Aug-15 22:30N 56°46' E 019°15'712.8
2017-Aug-15 21:57N 56°40' E 019°09'916.1
2017-Aug-15 21:22N 56°32' E 019°02'412.1
2017-Aug-15 21:00N 56°28' E 018°58'612.0
2017-Aug-15 20:31N 56°22' E 018°53'812.7
2017-Aug-15 19:54N 56°16' E 018°44'513.5
2017-Aug-15 19:30N 56°13' E 018°36'713.5
2017-Aug-15 19:01N 56°10' E 018°26'713.6
2017-Aug-15 18:30N 56°06' E 018°16'713.4
2017-Aug-15 18:01N 56°04' E 018°05'713.5
2017-Aug-15 17:30N 55°60' E 017°54'713.5
2017-Aug-15 17:01N 55°56' E 017°45'713.1
2017-Aug-15 16:31N 55°54' E 017°34'713.4
2017-Aug-15 16:01N 55°53' E 017°22'713.5
2017-Aug-15 15:31N 55°51' E 017°10'713.6
2017-Aug-15 15:00N 55°50' E 016°58'713.5
2017-Aug-15 14:31N 55°48' E 016°47'713.4
2017-Aug-15 14:00N 55°46' E 016°35'713.4
2017-Aug-15 13:30N 55°45' E 016°23'713.5
2017-Aug-15 13:00N 55°43' E 016°12'713.5
2017-Aug-15 12:30N 55°41' E 016°00'713.6
2017-Aug-15 12:00N 55°40' E 015°49'713.7
2017-Aug-15 11:31N 55°39' E 015°37'612.1
2017-Aug-15 11:00N 55°37' E 015°26'713.5
2017-Aug-15 10:30N 55°34' E 015°16'713.7
2017-Aug-15 10:00N 55°30' E 015°05'713.7
2017-Aug-15 09:31N 55°28' E 014°54'713.8
2017-Aug-15 09:00N 55°25' E 014°43'713.4
2017-Aug-15 08:31N 55°20' E 014°34'713.9
2017-Aug-15 08:00N 55°15' E 014°27'713.3
2017-Aug-15 07:31N 55°10' E 014°19'713.2
2017-Aug-15 07:00N 55°10' E 014°07'713.3
2017-Aug-15 06:30N 55°10' E 013°56'713.2
2017-Aug-15 06:00N 55°10' E 013°44'713.3
2017-Aug-15 05:30N 55°11' E 013°32'713.3
2017-Aug-15 05:01N 55°11' E 013°21'713.3
2017-Aug-15 04:30N 55°11' E 013°09'612.8
2017-Aug-15 04:01N 55°13' E 012°59'713.0
2017-Aug-15 03:30N 55°16' E 012°48'612.6
2017-Aug-15 03:00N 55°17' E 012°38'612.9
2017-Aug-15 02:31N 55°24' E 012°39'612.9
2017-Aug-15 02:00N 55°30' E 012°41'511.0
2017-Aug-15 01:31N 55°35' E 012°42'510.0
2017-Aug-15 01:00N 55°40' E 012°41'611.8
2017-Aug-15 00:30N 55°46' E 012°41'612.9
2017-Aug-15 00:00N 55°53' E 012°40'612.1
2017-Aug-14 23:30N 55°59' E 012°40'611.1
2017-Aug-14 23:00N 56°04' E 012°37'510.7
2017-Aug-14 22:30N 56°07' E 012°30'612.2
2017-Aug-14 22:00N 56°11' E 012°21'612.9
2017-Aug-14 21:30N 56°15' E 012°11'612.8
2017-Aug-14 21:00N 56°18' E 012°02'4313.8
2017-Aug-14 17:52N 57°00' E 011°42'613.1
2017-Aug-14 17:27N 57°05' E 011°38'613.2
2017-Aug-14 16:58N 57°11' E 011°34'613.0
2017-Aug-14 16:30N 57°17' E 011°31'713.3
2017-Aug-14 16:00N 57°23' E 011°27'713.3
2017-Aug-14 15:30N 57°29' E 011°21'713.6
2017-Aug-14 15:01N 57°34' E 011°12'714.1
2017-Aug-14 14:30N 57°38' E 011°02'714.3
2017-Aug-14 14:00N 57°43' E 010°52'713.8
2017-Aug-14 13:30N 57°47' E 010°42'714.9
2017-Aug-14 13:00N 57°47' E 010°28'10713.5
2017-Aug-14 05:04N 56°49' E 007°40'113.4
2017-Aug-14 05:00N 56°49' E 007°39'713.0
2017-Aug-14 04:28N 56°42' E 007°34'612.8
2017-Aug-14 04:00N 56°37' E 007°30'713.0
2017-Aug-14 03:30N 56°31' E 007°25'6813.0
2017-Aug-13 22:13N 55°27' E 006°40'313.1
2017-Aug-13 21:57N 55°24' E 006°39'613.1
2017-Aug-13 21:30N 55°18' E 006°38'713.2
2017-Aug-13 20:58N 55°11' E 006°37'713.1
2017-Aug-13 20:26N 55°04' E 006°36'613.1
2017-Aug-13 20:00N 54°58' E 006°35'8810.9
2017-Aug-13 11:55N 53°31' E 006°47'4 9.9
2017-Aug-13 11:30N 53°27' E 006°50'1 1.5
2017-Aug-13 11:00N 53°27' E 006°51'0 0.0
2017-Aug-13 10:25N 53°27' E 006°51'0 0.0
2017-Aug-13 09:58N 53°27' E 006°51'0 0.0
2017-Aug-13 09:28N 53°27' E 006°51'0 0.0
2017-Aug-13 08:58N 53°27' E 006°51'0 0.0
2017-Aug-13 08:28N 53°27' E 006°51'0 0.0
2017-Aug-13 07:58N 53°27' E 006°51'0 0.0
2017-Aug-13 07:28N 53°27' E 006°51'0 0.0
2017-Aug-13 06:55N 53°27' E 006°51'0 0.0
2017-Aug-13 06:28N 53°27' E 006°51'0 0.0
2017-Aug-13 05:55N 53°27' E 006°51'0 0.0
2017-Aug-13 05:28N 53°27' E 006°51'0 0.0
2017-Aug-13 04:58N 53°27' E 006°51'0 0.0
2017-Aug-13 04:28N 53°27' E 006°51'0 0.0
2017-Aug-13 03:55N 53°27' E 006°51'0 0.0
2017-Aug-13 03:28N 53°27' E 006°51'0 0.0
2017-Aug-13 02:58N 53°27' E 006°51'0 0.0
2017-Aug-13 02:28N 53°27' E 006°51'0 0.0
2017-Aug-13 01:55N 53°27' E 006°51'0 0.0
2017-Aug-13 01:28N 53°27' E 006°51'0 0.0
2017-Aug-13 00:58N 53°27' E 006°51'0 0.0
2017-Aug-13 00:28N 53°27' E 006°51'0 0.0
2017-Aug-12 23:58N 53°27' E 006°51'0 0.0
2017-Aug-12 23:28N 53°27' E 006°51'0 0.0
2017-Aug-12 22:58N 53°27' E 006°51'0 0.0
2017-Aug-12 22:25N 53°27' E 006°51'0 0.0
2017-Aug-12 21:58N 53°27' E 006°51'0 0.0
2017-Aug-12 21:25N 53°27' E 006°51'0 0.0
2017-Aug-12 20:58N 53°27' E 006°51'0 0.0
2017-Aug-12 20:25N 53°27' E 006°51'0 0.0
2017-Aug-12 19:58N 53°27' E 006°51'0 0.0
2017-Aug-12 19:22N 53°27' E 006°51'0 0.0
2017-Aug-12 18:58N 53°27' E 006°51'0 0.0
2017-Aug-12 18:28N 53°27' E 006°51'0 0.0
2017-Aug-12 17:58N 53°27' E 006°51'0 0.0
2017-Aug-12 17:28N 53°27' E 006°51'0 0.0
2017-Aug-12 16:58N 53°27' E 006°51'0 0.0
2017-Aug-12 16:28N 53°27' E 006°51'0 0.0
2017-Aug-12 15:58N 53°27' E 006°51'0 0.0
2017-Aug-12 15:25N 53°27' E 006°51'0 0.0
2017-Aug-12 14:58N 53°27' E 006°51'0 0.0
2017-Aug-12 14:28N 53°27' E 006°51'0 0.0
2017-Aug-12 13:58N 53°27' E 006°51'0 0.0
2017-Aug-12 13:28N 53°27' E 006°51'0 0.0
2017-Aug-12 12:58N 53°27' E 006°51'0 0.0
2017-Aug-12 12:28N 53°27' E 006°51'0 0.0
2017-Aug-12 11:58N 53°27' E 006°51'0 0.0
2017-Aug-12 11:28N 53°27' E 006°51'0 0.0
2017-Aug-12 10:58N 53°27' E 006°51'0 0.0
2017-Aug-12 10:28N 53°27' E 006°51'0 0.0
2017-Aug-12 09:58N 53°27' E 006°51'0 0.0
2017-Aug-12 09:28N 53°27' E 006°51'0 0.0
2017-Aug-12 08:55N 53°27' E 006°51'0 0.0
2017-Aug-12 08:28N 53°27' E 006°51'0 0.0
2017-Aug-12 07:55N 53°27' E 006°51'0 0.0
2017-Aug-12 07:28N 53°27' E 006°51'0 0.0
2017-Aug-12 06:55N 53°27' E 006°51'0 0.0
2017-Aug-12 06:28N 53°27' E 006°51'0 0.0
2017-Aug-12 05:58N 53°27' E 006°51'0 0.0
2017-Aug-12 05:28N 53°27' E 006°51'0 0.0
2017-Aug-12 04:55N 53°27' E 006°51'0 0.0
2017-Aug-12 04:28N 53°27' E 006°51'0 0.0
2017-Aug-12 03:58N 53°27' E 006°51'0 0.0
2017-Aug-12 03:16N 53°27' E 006°51'0 0.0
2017-Aug-12 02:58N 53°27' E 006°51'0 0.0
2017-Aug-12 02:25N 53°27' E 006°51'0 0.0
2017-Aug-12 01:58N 53°27' E 006°51'0 0.0
2017-Aug-12 01:28N 53°27' E 006°51'0 0.0
2017-Aug-12 00:55N 53°27' E 006°51'0 0.0
2017-Aug-12 00:25N 53°27' E 006°51'0 0.0
2017-Aug-11 23:58N 53°27' E 006°51'0 0.0
2017-Aug-11 23:28N 53°27' E 006°51'0 0.0
2017-Aug-11 22:58N 53°27' E 006°51'0 0.0
2017-Aug-11 22:28N 53°27' E 006°51'0 0.0
2017-Aug-11 21:58N 53°27' E 006°51'0 0.0
2017-Aug-11 21:28N 53°27' E 006°51'0 0.0
2017-Aug-11 20:58N 53°27' E 006°51'0 0.0
2017-Aug-11 20:28N 53°27' E 006°51'0 0.0
2017-Aug-11 19:55N 53°27' E 006°51'0 0.0
2017-Aug-11 19:28N 53°27' E 006°51'0 0.0
2017-Aug-11 18:58N 53°27' E 006°51'0 0.0
2017-Aug-11 18:28N 53°27' E 006°51'0 0.0
2017-Aug-11 17:58N 53°27' E 006°51'0 0.0
2017-Aug-11 17:28N 53°27' E 006°51'0 0.0
2017-Aug-11 16:58N 53°27' E 006°51'0 0.0
2017-Aug-11 16:28N 53°27' E 006°51'0 0.0
2017-Aug-11 15:58N 53°27' E 006°51'0 0.0
2017-Aug-11 15:28N 53°27' E 006°51'0 0.0
2017-Aug-11 14:58N 53°27' E 006°51'0 0.0
2017-Aug-11 13:58N 53°27' E 006°51'0 0.0
2017-Aug-11 13:25N 53°27' E 006°51'0 0.0
2017-Aug-11 12:58N 53°27' E 006°51'0 0.0
2017-Aug-11 12:28N 53°27' E 006°51'0 0.0
2017-Aug-11 11:58N 53°27' E 006°51'0 0.0
2017-Aug-11 11:28N 53°27' E 006°51'0 0.0
2017-Aug-11 10:58N 53°27' E 006°51'0 0.0
2017-Aug-11 10:28N 53°27' E 006°51'0 0.0
2017-Aug-11 09:58N 53°27' E 006°51'0 0.0
2017-Aug-11 09:25N 53°27' E 006°51'0 0.0
2017-Aug-11 08:58N 53°27' E 006°51'0 0.0
2017-Aug-11 08:28N 53°27' E 006°51'0 0.0
2017-Aug-11 07:52N 53°27' E 006°51'0 0.0
2017-Aug-11 07:28N 53°27' E 006°51'0 0.0
2017-Aug-11 06:58N 53°27' E 006°51'0 0.0
2017-Aug-11 06:28N 53°27' E 006°51'0 0.0
2017-Aug-11 05:58N 53°27' E 006°51'0 0.0
2017-Aug-11 05:28N 53°27' E 006°51'0 0.0
2017-Aug-11 04:58N 53°27' E 006°51'0 0.0
2017-Aug-11 04:28N 53°27' E 006°51'0 0.0
2017-Aug-11 03:58N 53°27' E 006°51'0 0.0
2017-Aug-11 03:25N 53°27' E 006°51'0 0.0
2017-Aug-11 02:34N 53°27' E 006°51'0 0.1
2017-Aug-11 02:22N 53°27' E 006°51'0 0.0
2017-Aug-11 01:58N 53°27' E 006°51'0 0.0
2017-Aug-11 01:28N 53°27' E 006°51'0 0.0
2017-Aug-11 00:52N 53°27' E 006°51'0 0.0
2017-Aug-11 00:22N 53°27' E 006°51'0 0.0
2017-Aug-10 23:52N 53°27' E 006°51'0 0.0
2017-Aug-10 23:28N 53°27' E 006°51'0 0.0
2017-Aug-10 22:52N 53°27' E 006°51'0 0.0
2017-Aug-10 22:25N 53°27' E 006°51'0 0.0
2017-Aug-10 21:10N 53°27' E 006°51'0 0.0
2017-Aug-10 20:58N 53°27' E 006°51'0 0.0
2017-Aug-10 20:25N 53°27' E 006°51'0 0.0
2017-Aug-10 19:58N 53°27' E 006°51'0 0.0
2017-Aug-10 19:28N 53°27' E 006°51'0 0.0
2017-Aug-10 18:58N 53°27' E 006°51'0 0.0
2017-Aug-10 18:25N 53°27' E 006°51'0 0.0
2017-Aug-10 17:55N 53°27' E 006°51'0 0.0
2017-Aug-10 17:28N 53°27' E 006°51'0 0.0
2017-Aug-10 16:52N 53°27' E 006°51'0 0.1
2017-Aug-10 16:28N 53°27' E 006°51'0 0.0
2017-Aug-10 15:58N 53°27' E 006°51'0 0.0
2017-Aug-10 15:22N 53°27' E 006°51'0 0.0
2017-Aug-10 14:55N 53°27' E 006°51'0 0.0
2017-Aug-10 14:28N 53°27' E 006°51'0 0.0
2017-Aug-10 13:58N 53°27' E 006°51'0 0.0
2017-Aug-10 13:25N 53°27' E 006°51'0 0.0
2017-Aug-10 12:58N 53°27' E 006°51'0 0.0
2017-Aug-10 12:30N 53°27' E 006°51'1 1.5
2017-Aug-10 12:00N 53°27' E 006°50'3 6.4
2017-Aug-10 11:29N 53°30' E 006°48'82 1.9
2017-Aug-08 17:24N 54°51' E 006°33'512.6
2017-Aug-08 17:00N 54°56' E 006°34'612.6
2017-Aug-08 16:30N 55°03' E 006°35'812.5
2017-Aug-08 15:54N 55°10' E 006°36'512.7
2017-Aug-08 15:30N 55°15' E 006°37'612.8
2017-Aug-08 15:00N 55°22' E 006°38'612.8
2017-Aug-08 14:30N 55°28' E 006°40'612.7
2017-Aug-08 14:00N 55°34' E 006°42'713.0
2017-Aug-08 13:30N 55°40' E 006°47'1013.0
2017-Aug-08 12:43N 55°50' E 006°54'513.0
2017-Aug-08 12:19N 55°54' E 006°57'  
Track history (hours):
 
Tides and Currents Weather Stations Pressure Air Temp Water Temp Dewpoint Dewpoint Depression Visibility Wind Speed Wind Dir Waves Ship Positions

Zagreb

Last reported at 2017-Aug-18 02:54 UTC. Time now 2017-Aug-18 10:43 UTC.
Position N 56°59' E 024°06'.

Length 229 m; draft 8.8 m.

Type: Cargo ship. MMSI: 238249000.

Date/timePositionNaut miles runAvg speedWind from/ knotsBaromVisibWave heightAir tempDewpointWater temp
2017-Aug-18 02:54N 56°59' E 024°06'0 0.0
2017-Aug-17 05:24N 56°59' E 024°06'0 0.0
2017-Aug-17 04:45N 56°59' E 024°06'0 0.0
2017-Aug-17 03:03N 56°59' E 024°06'0 0.0
2017-Aug-17 03:00N 56°59' E 024°06'54 3.3
2017-Aug-16 10:37N 57°39' E 022°59'312.0
2017-Aug-16 10:24N 57°41' E 022°56'511.4
2017-Aug-16 10:00N 57°44' E 022°50'712.4
2017-Aug-16 09:28N 57°49' E 022°41'712.8
2017-Aug-16 08:57N 57°49' E 022°29'1312.9
2017-Aug-16 07:55N 57°43' E 022°07'614.6
2017-Aug-16 07:30N 57°41' E 021°56'612.4
2017-Aug-16 07:00N 57°44' E 021°47'612.7
2017-Aug-16 06:30N 57°50' E 021°40'612.6
2017-Aug-16 06:00N 57°52' E 021°29'714.6
2017-Aug-16 05:30N 57°51' E 021°15'611.7
2017-Aug-16 05:00N 57°51' E 021°05'713.3
2017-Aug-16 04:30N 57°48' E 020°54'713.8
2017-Aug-16 04:00N 57°43' E 020°43'713.7
2017-Aug-16 03:30N 57°39' E 020°33'714.1
2017-Aug-16 02:59N 57°34' E 020°23'1413.9
2017-Aug-16 02:00N 57°25' E 020°03'1613.2
2017-Aug-16 00:45N 57°14' E 019°41'1713.7
2017-Aug-15 23:31N 56°59' E 019°27'016.2
2017-Aug-15 23:30N 56°59' E 019°27'1314.2
2017-Aug-15 22:36N 56°47' E 019°16'114.4
2017-Aug-15 22:30N 56°46' E 019°15'712.8
2017-Aug-15 21:57N 56°40' E 019°09'916.1
2017-Aug-15 21:22N 56°32' E 019°02'412.1
2017-Aug-15 21:00N 56°28' E 018°58'612.0
2017-Aug-15 20:31N 56°22' E 018°53'812.7
2017-Aug-15 19:54N 56°16' E 018°44'513.5
2017-Aug-15 19:30N 56°13' E 018°36'713.5
2017-Aug-15 19:01N 56°10' E 018°26'713.6
2017-Aug-15 18:30N 56°06' E 018°16'713.4
2017-Aug-15 18:01N 56°04' E 018°05'713.5
2017-Aug-15 17:30N 55°60' E 017°54'713.5
2017-Aug-15 17:01N 55°56' E 017°45'713.1
2017-Aug-15 16:31N 55°54' E 017°34'713.4
2017-Aug-15 16:01N 55°53' E 017°22'713.5
2017-Aug-15 15:31N 55°51' E 017°10'713.6
2017-Aug-15 15:00N 55°50' E 016°58'713.5
2017-Aug-15 14:31N 55°48' E 016°47'713.4
2017-Aug-15 14:00N 55°46' E 016°35'713.4
2017-Aug-15 13:30N 55°45' E 016°23'713.5
2017-Aug-15 13:00N 55°43' E 016°12'713.5
2017-Aug-15 12:30N 55°41' E 016°00'713.6
2017-Aug-15 12:00N 55°40' E 015°49'713.7
2017-Aug-15 11:31N 55°39' E 015°37'612.1
2017-Aug-15 11:00N 55°37' E 015°26'713.5
2017-Aug-15 10:30N 55°34' E 015°16'713.7
2017-Aug-15 10:00N 55°30' E 015°05'713.7
2017-Aug-15 09:31N 55°28' E 014°54'713.8
2017-Aug-15 09:00N 55°25' E 014°43'713.4
2017-Aug-15 08:31N 55°20' E 014°34'713.9
2017-Aug-15 08:00N 55°15' E 014°27'713.3
2017-Aug-15 07:31N 55°10' E 014°19'713.2
2017-Aug-15 07:00N 55°10' E 014°07'713.3
2017-Aug-15 06:30N 55°10' E 013°56'713.2
2017-Aug-15 06:00N 55°10' E 013°44'713.3
2017-Aug-15 05:30N 55°11' E 013°32'713.3
2017-Aug-15 05:01N 55°11' E 013°21'713.3
2017-Aug-15 04:30N 55°11' E 013°09'612.8
2017-Aug-15 04:01N 55°13' E 012°59'713.0
2017-Aug-15 03:30N 55°16' E 012°48'612.6
2017-Aug-15 03:00N 55°17' E 012°38'612.9
2017-Aug-15 02:31N 55°24' E 012°39'612.9
2017-Aug-15 02:00N 55°30' E 012°41'511.0
2017-Aug-15 01:31N 55°35' E 012°42'510.0
2017-Aug-15 01:00N 55°40' E 012°41'611.8
2017-Aug-15 00:30N 55°46' E 012°41'612.9
2017-Aug-15 00:00N 55°53' E 012°40'612.1
2017-Aug-14 23:30N 55°59' E 012°40'611.1
2017-Aug-14 23:00N 56°04' E 012°37'510.7
2017-Aug-14 22:30N 56°07' E 012°30'612.2
2017-Aug-14 22:00N 56°11' E 012°21'612.9
2017-Aug-14 21:30N 56°15' E 012°11'612.8
2017-Aug-14 21:00N 56°18' E 012°02'4313.8
2017-Aug-14 17:52N 57°00' E 011°42'613.1
2017-Aug-14 17:27N 57°05' E 011°38'613.2
2017-Aug-14 16:58N 57°11' E 011°34'613.0
2017-Aug-14 16:30N 57°17' E 011°31'713.3
2017-Aug-14 16:00N 57°23' E 011°27'713.3
2017-Aug-14 15:30N 57°29' E 011°21'713.6
2017-Aug-14 15:01N 57°34' E 011°12'714.1
2017-Aug-14 14:30N 57°38' E 011°02'714.3
2017-Aug-14 14:00N 57°43' E 010°52'713.8
2017-Aug-14 13:30N 57°47' E 010°42'714.9
2017-Aug-14 13:00N 57°47' E 010°28'10713.5
2017-Aug-14 05:04N 56°49' E 007°40'113.4
2017-Aug-14 05:00N 56°49' E 007°39'713.0
2017-Aug-14 04:28N 56°42' E 007°34'612.8
2017-Aug-14 04:00N 56°37' E 007°30'713.0
2017-Aug-14 03:30N 56°31' E 007°25'6813.0
2017-Aug-13 22:13N 55°27' E 006°40'313.1
2017-Aug-13 21:57N 55°24' E 006°39'613.1
2017-Aug-13 21:30N 55°18' E 006°38'713.2
2017-Aug-13 20:58N 55°11' E 006°37'713.1
2017-Aug-13 20:26N 55°04' E 006°36'613.1
2017-Aug-13 20:00N 54°58' E 006°35'8810.9
2017-Aug-13 11:55N 53°31' E 006°47'4 9.9
2017-Aug-13 11:30N 53°27' E 006°50'1 1.5
2017-Aug-13 11:00N 53°27' E 006°51'0 0.0
2017-Aug-13 10:25N 53°27' E 006°51'0 0.0
2017-Aug-13 09:58N 53°27' E 006°51'0 0.0
2017-Aug-13 09:28N 53°27' E 006°51'0 0.0
2017-Aug-13 08:58N 53°27' E 006°51'0 0.0
2017-Aug-13 08:28N 53°27' E 006°51'0 0.0
2017-Aug-13 07:58N 53°27' E 006°51'0 0.0
2017-Aug-13 07:28N 53°27' E 006°51'0 0.0
2017-Aug-13 06:55N 53°27' E 006°51'0 0.0
2017-Aug-13 06:28N 53°27' E 006°51'0 0.0
2017-Aug-13 05:55N 53°27' E 006°51'0 0.0
2017-Aug-13 05:28N 53°27' E 006°51'0 0.0
2017-Aug-13 04:58N 53°27' E 006°51'0 0.0
2017-Aug-13 04:28N 53°27' E 006°51'0 0.0
2017-Aug-13 03:55N 53°27' E 006°51'0 0.0
2017-Aug-13 03:28N 53°27' E 006°51'0 0.0
2017-Aug-13 02:58N 53°27' E 006°51'0 0.0
2017-Aug-13 02:28N 53°27' E 006°51'0 0.0
2017-Aug-13 01:55N 53°27' E 006°51'0 0.0
2017-Aug-13 01:28N 53°27' E 006°51'0 0.0
2017-Aug-13 00:58N 53°27' E 006°51'0 0.0
2017-Aug-13 00:28N 53°27' E 006°51'0 0.0
2017-Aug-12 23:58N 53°27' E 006°51'0 0.0
2017-Aug-12 23:28N 53°27' E 006°51'0 0.0
2017-Aug-12 22:58N 53°27' E 006°51'0 0.0
2017-Aug-12 22:25N 53°27' E 006°51'0 0.0
2017-Aug-12 21:58N 53°27' E 006°51'0 0.0
2017-Aug-12 21:25N 53°27' E 006°51'0 0.0
2017-Aug-12 20:58N 53°27' E 006°51'0 0.0
2017-Aug-12 20:25N 53°27' E 006°51'0 0.0
2017-Aug-12 19:58N 53°27' E 006°51'0 0.0
2017-Aug-12 19:22N 53°27' E 006°51'0 0.0
2017-Aug-12 18:58N 53°27' E 006°51'0 0.0
2017-Aug-12 18:28N 53°27' E 006°51'0 0.0
2017-Aug-12 17:58N 53°27' E 006°51'0 0.0
2017-Aug-12 17:28N 53°27' E 006°51'0 0.0
2017-Aug-12 16:58N 53°27' E 006°51'0 0.0
2017-Aug-12 16:28N 53°27' E 006°51'0 0.0
2017-Aug-12 15:58N 53°27' E 006°51'0 0.0
2017-Aug-12 15:25N 53°27' E 006°51'0 0.0
2017-Aug-12 14:58N 53°27' E 006°51'0 0.0
2017-Aug-12 14:28N 53°27' E 006°51'0 0.0
2017-Aug-12 13:58N 53°27' E 006°51'0 0.0
2017-Aug-12 13:28N 53°27' E 006°51'0 0.0
2017-Aug-12 12:58N 53°27' E 006°51'0 0.0
2017-Aug-12 12:28N 53°27' E 006°51'0 0.0
2017-Aug-12 11:58N 53°27' E 006°51'0 0.0
2017-Aug-12 11:28N 53°27' E 006°51'0 0.0
2017-Aug-12 10:58N 53°27' E 006°51'0 0.0
2017-Aug-12 10:28N 53°27' E 006°51'0 0.0
2017-Aug-12 09:58N 53°27' E 006°51'0 0.0
2017-Aug-12 09:28N 53°27' E 006°51'0 0.0
2017-Aug-12 08:55N 53°27' E 006°51'0 0.0
2017-Aug-12 08:28N 53°27' E 006°51'0 0.0
2017-Aug-12 07:55N 53°27' E 006°51'0 0.0
2017-Aug-12 07:28N 53°27' E 006°51'0 0.0
2017-Aug-12 06:55N 53°27' E 006°51'0 0.0
2017-Aug-12 06:28N 53°27' E 006°51'0 0.0
2017-Aug-12 05:58N 53°27' E 006°51'0 0.0
2017-Aug-12 05:28N 53°27' E 006°51'0 0.0
2017-Aug-12 04:55N 53°27' E 006°51'0 0.0
2017-Aug-12 04:28N 53°27' E 006°51'0 0.0
2017-Aug-12 03:58N 53°27' E 006°51'0 0.0
2017-Aug-12 03:16N 53°27' E 006°51'0 0.0
2017-Aug-12 02:58N 53°27' E 006°51'0 0.0
2017-Aug-12 02:25N 53°27' E 006°51'0 0.0
2017-Aug-12 01:58N 53°27' E 006°51'0 0.0
2017-Aug-12 01:28N 53°27' E 006°51'0 0.0
2017-Aug-12 00:55N 53°27' E 006°51'0 0.0
2017-Aug-12 00:25N 53°27' E 006°51'0 0.0
2017-Aug-11 23:58N 53°27' E 006°51'0 0.0
2017-Aug-11 23:28N 53°27' E 006°51'0 0.0
2017-Aug-11 22:58N 53°27' E 006°51'0 0.0
2017-Aug-11 22:28N 53°27' E 006°51'0 0.0
2017-Aug-11 21:58N 53°27' E 006°51'0 0.0
2017-Aug-11 21:28N 53°27' E 006°51'0 0.0
2017-Aug-11 20:58N 53°27' E 006°51'0 0.0
2017-Aug-11 20:28N 53°27' E 006°51'0 0.0
2017-Aug-11 19:55N 53°27' E 006°51'0 0.0
2017-Aug-11 19:28N 53°27' E 006°51'0 0.0
2017-Aug-11 18:58N 53°27' E 006°51'0 0.0
2017-Aug-11 18:28N 53°27' E 006°51'0 0.0
2017-Aug-11 17:58N 53°27' E 006°51'0 0.0
2017-Aug-11 17:28N 53°27' E 006°51'0 0.0
2017-Aug-11 16:58N 53°27' E 006°51'0 0.0
2017-Aug-11 16:28N 53°27' E 006°51'0 0.0
2017-Aug-11 15:58N 53°27' E 006°51'0 0.0
2017-Aug-11 15:28N 53°27' E 006°51'0 0.0
2017-Aug-11 14:58N 53°27' E 006°51'0 0.0
2017-Aug-11 13:58N 53°27' E 006°51'0 0.0
2017-Aug-11 13:25N 53°27' E 006°51'0 0.0
2017-Aug-11 12:58N 53°27' E 006°51'0 0.0
2017-Aug-11 12:28N 53°27' E 006°51'0 0.0
2017-Aug-11 11:58N 53°27' E 006°51'0 0.0
2017-Aug-11 11:28N 53°27' E 006°51'0 0.0
2017-Aug-11 10:58N 53°27' E 006°51'0 0.0
2017-Aug-11 10:28N 53°27' E 006°51'0 0.0
2017-Aug-11 09:58N 53°27' E 006°51'0 0.0
2017-Aug-11 09:25N 53°27' E 006°51'0 0.0
2017-Aug-11 08:58N 53°27' E 006°51'0 0.0
2017-Aug-11 08:28N 53°27' E 006°51'0 0.0
2017-Aug-11 07:52N 53°27' E 006°51'0 0.0
2017-Aug-11 07:28N 53°27' E 006°51'0 0.0
2017-Aug-11 06:58N 53°27' E 006°51'0 0.0
2017-Aug-11 06:28N 53°27' E 006°51'0 0.0
2017-Aug-11 05:58N 53°27' E 006°51'0 0.0
2017-Aug-11 05:28N 53°27' E 006°51'0 0.0
2017-Aug-11 04:58N 53°27' E 006°51'0 0.0
2017-Aug-11 04:28N 53°27' E 006°51'0 0.0
2017-Aug-11 03:58N 53°27' E 006°51'0 0.0
2017-Aug-11 03:25N 53°27' E 006°51'0 0.0
2017-Aug-11 02:34N 53°27' E 006°51'0 0.1
2017-Aug-11 02:22N 53°27' E 006°51'0 0.0
2017-Aug-11 01:58N 53°27' E 006°51'0 0.0
2017-Aug-11 01:28N 53°27' E 006°51'0 0.0
2017-Aug-11 00:52N 53°27' E 006°51'0 0.0
2017-Aug-11 00:22N 53°27' E 006°51'0 0.0
2017-Aug-10 23:52N 53°27' E 006°51'0 0.0
2017-Aug-10 23:28N 53°27' E 006°51'0 0.0
2017-Aug-10 22:52N 53°27' E 006°51'0 0.0
2017-Aug-10 22:25N 53°27' E 006°51'0 0.0
2017-Aug-10 21:10N 53°27' E 006°51'0 0.0
2017-Aug-10 20:58N 53°27' E 006°51'0 0.0
2017-Aug-10 20:25N 53°27' E 006°51'0 0.0
2017-Aug-10 19:58N 53°27' E 006°51'0 0.0
2017-Aug-10 19:28N 53°27' E 006°51'0 0.0
2017-Aug-10 18:58N 53°27' E 006°51'0 0.0
2017-Aug-10 18:25N 53°27' E 006°51'0 0.0
2017-Aug-10 17:55N 53°27' E 006°51'0 0.0
2017-Aug-10 17:28N 53°27' E 006°51'0 0.0
2017-Aug-10 16:52N 53°27' E 006°51'0 0.1
2017-Aug-10 16:28N 53°27' E 006°51'0 0.0
2017-Aug-10 15:58N 53°27' E 006°51'0 0.0
2017-Aug-10 15:22N 53°27' E 006°51'0 0.0
2017-Aug-10 14:55N 53°27' E 006°51'0 0.0
2017-Aug-10 14:28N 53°27' E 006°51'0 0.0
2017-Aug-10 13:58N 53°27' E 006°51'0 0.0
2017-Aug-10 13:25N 53°27' E 006°51'0 0.0
2017-Aug-10 12:58N 53°27' E 006°51'0 0.0
2017-Aug-10 12:30N 53°27' E 006°51'1 1.5
2017-Aug-10 12:00N 53°27' E 006°50'3 6.4
2017-Aug-10 11:29N 53°30' E 006°48'82 1.9
2017-Aug-08 17:24N 54°51' E 006°33'512.6
2017-Aug-08 17:00N 54°56' E 006°34'612.6
2017-Aug-08 16:30N 55°03' E 006°35'812.5
2017-Aug-08 15:54N 55°10' E 006°36'512.7
2017-Aug-08 15:30N 55°15' E 006°37'612.8
2017-Aug-08 15:00N 55°22' E 006°38'612.8
2017-Aug-08 14:30N 55°28' E 006°40'612.7
2017-Aug-08 14:00N 55°34' E 006°42'713.0
2017-Aug-08 13:30N 55°40' E 006°47'1013.0
2017-Aug-08 12:43N 55°50' E 006°54'513.0
2017-Aug-08 12:19N 55°54' E 006°57'  

Dump ship's entire track history